createdAt,value
2018-11-28T00:00:03.494Z,3.89
2018-11-28T00:00:38.197Z,3.90
2018-11-28T00:01:12.843Z,3.84
2018-11-28T00:01:47.467Z,3.85
2018-11-28T00:02:22.129Z,3.88
2018-11-28T00:02:56.859Z,4.02
2018-11-28T00:03:31.529Z,3.93
2018-11-28T00:04:06.325Z,3.89
2018-11-28T00:04:40.979Z,3.92
2018-11-28T00:05:15.740Z,3.94
2018-11-28T00:05:50.851Z,3.90
2018-11-28T00:06:26.017Z,3.86
2018-11-28T00:07:00.685Z,3.88
2018-11-28T00:07:35.334Z,3.92
2018-11-28T00:08:09.998Z,4.04
2018-11-28T00:08:44.729Z,4.04
2018-11-28T00:09:19.653Z,3.95
2018-11-28T00:09:54.400Z,3.93
2018-11-28T00:10:29.135Z,3.93
2018-11-28T00:11:03.824Z,3.94
2018-11-28T00:11:38.613Z,3.92
2018-11-28T00:12:13.290Z,3.91
2018-11-28T00:12:47.919Z,3.88
2018-11-28T00:13:22.943Z,3.84
2018-11-28T00:13:57.575Z,3.84
2018-11-28T00:14:32.377Z,3.84
2018-11-28T00:15:08.657Z,3.79
2018-11-28T00:15:43.306Z,3.81
2018-11-28T00:16:17.925Z,3.81
2018-11-28T00:16:52.613Z,3.88
2018-11-28T00:17:27.242Z,3.97
2018-11-28T00:18:01.992Z,3.92
2018-11-28T00:18:36.645Z,3.86
2018-11-28T00:19:11.285Z,4.07
2018-11-28T00:19:45.889Z,3.99
2018-11-28T00:20:21.489Z,3.95
2018-11-28T00:20:56.169Z,3.87
2018-11-28T00:21:30.850Z,3.91
2018-11-28T00:22:05.591Z,3.86
2018-11-28T00:22:40.408Z,3.79
2018-11-28T00:23:15.136Z,3.79
2018-11-28T00:23:49.746Z,3.74
2018-11-28T00:24:24.419Z,3.79
2018-11-28T00:24:59.071Z,3.75
2018-11-28T00:25:33.764Z,3.70
2018-11-28T00:26:08.512Z,3.73
2018-11-28T00:26:43.209Z,3.94
2018-11-28T00:27:17.853Z,4.01
2018-11-28T00:27:52.638Z,3.80
2018-11-28T00:28:27.263Z,3.83
2018-11-28T00:29:01.969Z,3.79
2018-11-28T00:29:36.709Z,3.72
2018-11-28T00:30:20.977Z,3.70
2018-11-28T00:30:55.804Z,3.63
2018-11-28T00:31:30.822Z,3.62
2018-11-28T00:32:06.747Z,3.82
2018-11-28T00:32:42.074Z,3.77
2018-11-28T00:33:16.958Z,3.77
2018-11-28T00:33:52.102Z,3.78
2018-11-28T00:34:27.030Z,3.83
2018-11-28T00:35:02.208Z,3.93
2018-11-28T00:35:37.421Z,3.92
2018-11-28T00:36:12.395Z,3.91
2018-11-28T00:36:47.347Z,3.90
2018-11-28T00:37:22.168Z,3.84
2018-11-28T00:37:57.029Z,3.79
2018-11-28T00:38:32.078Z,3.77
2018-11-28T00:39:08.703Z,3.74
2018-11-28T00:39:43.743Z,3.74
2018-11-28T00:40:19.964Z,3.76
2018-11-28T00:40:54.634Z,3.73
2018-11-28T00:41:29.353Z,3.74
2018-11-28T00:42:04.448Z,3.73
2018-11-28T00:42:39.115Z,3.72
2018-11-28T00:43:13.800Z,3.77
2018-11-28T00:43:48.438Z,3.87
2018-11-28T00:44:23.132Z,4.04
2018-11-28T00:44:58.378Z,4.05
2018-11-28T00:45:33.261Z,4.00
2018-11-28T00:46:07.927Z,4.08
2018-11-28T00:46:42.544Z,4.09
2018-11-28T00:47:17.244Z,4.20
2018-11-28T00:47:52.238Z,4.12
2018-11-28T00:48:26.970Z,4.08
2018-11-28T00:49:01.859Z,4.01
2018-11-28T00:49:36.514Z,3.96
2018-11-28T00:50:13.501Z,3.90
2018-11-28T00:50:48.170Z,3.81
2018-11-28T00:51:22.849Z,3.79
2018-11-28T00:51:57.520Z,3.77
2018-11-28T00:52:32.338Z,3.84
2018-11-28T00:53:07.354Z,3.95
2018-11-28T00:53:41.948Z,3.96
2018-11-28T00:54:16.578Z,3.98
2018-11-28T00:54:51.230Z,4.00
2018-11-28T00:55:26.301Z,4.03
2018-11-28T00:56:00.986Z,3.93
2018-11-28T00:56:35.730Z,3.92
2018-11-28T00:57:10.397Z,3.87
2018-11-28T00:57:45.426Z,3.84
2018-11-28T00:58:20.041Z,3.84
2018-11-28T00:58:54.645Z,3.83
2018-11-28T00:59:29.291Z,3.83
2018-11-28T01:00:05.588Z,3.78
2018-11-28T01:00:40.242Z,3.75
2018-11-28T01:01:14.994Z,3.75
2018-11-28T01:01:49.601Z,3.79
2018-11-28T01:02:24.327Z,3.85
2018-11-28T01:02:58.952Z,3.91
2018-11-28T01:03:33.581Z,3.88
2018-11-28T01:04:08.221Z,3.88
2018-11-28T01:04:42.821Z,3.91
2018-11-28T01:05:17.627Z,3.85
2018-11-28T01:05:52.262Z,3.81
2018-11-28T01:06:26.915Z,3.85
2018-11-28T01:07:04.017Z,3.86
2018-11-28T01:07:38.664Z,3.81
2018-11-28T01:08:13.338Z,3.87
2018-11-28T01:08:47.989Z,3.83
2018-11-28T01:09:22.597Z,3.82
2018-11-28T01:09:57.239Z,3.86
2018-11-28T01:10:31.994Z,3.86
2018-11-28T01:11:07.148Z,3.58
2018-11-28T01:11:41.758Z,3.91
2018-11-28T01:12:16.370Z,3.94
2018-11-28T01:12:51.889Z,3.88
2018-11-28T01:13:26.540Z,3.92
2018-11-28T01:14:01.278Z,4.00
2018-11-28T01:14:35.945Z,4.19
2018-11-28T01:15:12.912Z,4.16
2018-11-28T01:15:47.588Z,4.03
2018-11-28T01:16:22.198Z,3.98
2018-11-28T01:16:56.910Z,3.92
2018-11-28T01:17:31.533Z,3.93
2018-11-28T01:18:07.055Z,3.86
2018-11-28T01:18:41.692Z,3.88
2018-11-28T01:19:16.399Z,3.81
2018-11-28T01:19:51.042Z,3.80
2018-11-28T01:20:25.744Z,3.83
2018-11-28T01:21:00.496Z,3.78
2018-11-28T01:21:35.135Z,3.78
2018-11-28T01:22:09.751Z,3.81
2018-11-28T01:22:44.504Z,3.89
2018-11-28T01:23:19.498Z,4.00
2018-11-28T01:23:54.114Z,4.02
2018-11-28T01:24:28.734Z,4.13
2018-11-28T01:25:03.377Z,4.11
2018-11-28T01:25:38.004Z,4.13
2018-11-28T01:26:12.714Z,4.20
2018-11-28T01:26:47.420Z,4.16
2018-11-28T01:27:22.113Z,4.08
2018-11-28T01:27:56.727Z,3.94
2018-11-28T01:28:31.382Z,3.83
2018-11-28T01:29:06.489Z,3.71
2018-11-28T01:29:41.193Z,3.77
2018-11-28T01:30:19.792Z,3.71
2018-11-28T01:30:54.423Z,3.80
2018-11-28T01:31:29.084Z,3.93
2018-11-28T01:32:03.774Z,3.91
2018-11-28T01:32:38.491Z,3.94
2018-11-28T01:33:13.203Z,3.85
2018-11-28T01:33:47.834Z,3.95
2018-11-28T01:34:22.530Z,3.90
2018-11-28T01:34:57.136Z,3.76
2018-11-28T01:35:31.905Z,3.75
2018-11-28T01:36:06.608Z,3.74
2018-11-28T01:36:41.212Z,3.75
2018-11-28T01:37:15.828Z,3.70
2018-11-28T01:37:50.473Z,3.65
2018-11-28T01:38:25.113Z,3.64
2018-11-28T01:38:59.758Z,3.62
2018-11-28T01:39:34.464Z,3.58
2018-11-28T01:40:27.009Z,3.57
2018-11-28T01:41:01.794Z,3.52
2018-11-28T01:41:36.459Z,3.65
2018-11-28T01:42:11.113Z,3.61
2018-11-28T01:42:46.361Z,3.61
2018-11-28T01:43:20.974Z,3.55
2018-11-28T01:43:55.593Z,3.52
2018-11-28T01:44:30.234Z,3.59
2018-11-28T01:45:05.184Z,3.60
2018-11-28T01:45:39.835Z,3.51
2018-11-28T01:46:14.592Z,3.46
2018-11-28T01:46:49.224Z,3.42
2018-11-28T01:47:23.849Z,3.39
2018-11-28T01:47:58.509Z,3.34
2018-11-28T01:48:33.206Z,3.31
2018-11-28T01:49:07.941Z,3.28
2018-11-28T01:49:42.566Z,3.28
2018-11-28T01:50:19.087Z,3.27
2018-11-28T01:50:53.722Z,3.25
2018-11-28T01:51:28.374Z,3.25
2018-11-28T01:52:03.269Z,3.24
2018-11-28T01:52:38.331Z,3.16
2018-11-28T01:53:12.967Z,3.14
2018-11-28T01:53:47.633Z,3.12
2018-11-28T01:54:22.253Z,3.09
2018-11-28T01:54:56.864Z,3.02
2018-11-28T01:55:31.665Z,3.08
2018-11-28T01:56:06.322Z,3.03
2018-11-28T01:56:40.947Z,3.02
2018-11-28T01:57:15.559Z,3.04
2018-11-28T01:57:50.576Z,3.01
2018-11-28T01:58:25.165Z,3.04
2018-11-28T01:58:59.815Z,3.07
2018-11-28T01:59:34.461Z,3.05
2018-11-28T02:00:11.982Z,3.05
2018-11-28T02:00:46.811Z,3.07
2018-11-28T02:01:21.408Z,3.07
2018-11-28T02:01:56.122Z,3.02
2018-11-28T02:02:30.801Z,3.05
2018-11-28T02:03:05.975Z,2.99
2018-11-28T02:03:40.672Z,2.93
2018-11-28T02:04:15.388Z,2.93
2018-11-28T02:04:50.102Z,2.93
2018-11-28T02:05:25.084Z,2.90
2018-11-28T02:05:59.714Z,2.88
2018-11-28T02:06:34.534Z,2.89
2018-11-28T02:07:09.193Z,2.89
2018-11-28T02:07:43.847Z,2.86
2018-11-28T02:08:18.472Z,2.85
2018-11-28T02:08:53.079Z,2.86
2018-11-28T02:09:27.751Z,2.92
2018-11-28T02:10:02.851Z,2.88
2018-11-28T02:10:37.602Z,2.88
2018-11-28T02:11:12.279Z,2.85
2018-11-28T02:11:46.889Z,2.80
2018-11-28T02:12:21.520Z,2.75
2018-11-28T02:12:56.140Z,2.76
2018-11-28T02:13:30.835Z,2.71
2018-11-28T02:14:05.981Z,2.74
2018-11-28T02:14:40.616Z,2.70
2018-11-28T02:15:21.149Z,2.67
2018-11-28T02:15:55.790Z,2.62
2018-11-28T02:16:30.546Z,2.74
2018-11-28T02:17:05.225Z,2.76
2018-11-28T02:17:39.920Z,2.78
2018-11-28T02:18:14.548Z,2.75
2018-11-28T02:18:49.250Z,2.75
2018-11-28T02:19:23.876Z,2.80
2018-11-28T02:19:58.496Z,2.75
2018-11-28T02:20:33.353Z,2.73
2018-11-28T02:21:08.000Z,2.74
2018-11-28T02:21:42.762Z,2.71
2018-11-28T02:22:17.401Z,2.73
2018-11-28T02:22:52.078Z,2.70
2018-11-28T02:23:26.702Z,2.63
2018-11-28T02:24:01.474Z,2.57
2018-11-28T02:24:36.160Z,2.53
2018-11-28T02:25:13.117Z,2.56
2018-11-28T02:25:47.723Z,2.58
2018-11-28T02:26:22.386Z,2.62
2018-11-28T02:26:57.061Z,2.65
2018-11-28T02:27:31.828Z,2.64
2018-11-28T02:28:06.631Z,2.60
2018-11-28T02:28:41.326Z,2.59
2018-11-28T02:29:15.940Z,2.58
2018-11-28T02:29:50.669Z,2.58
2018-11-28T02:30:25.672Z,2.55
2018-11-28T02:31:00.353Z,2.54
2018-11-28T02:31:35.050Z,2.51
2018-11-28T02:32:09.677Z,2.51
2018-11-28T02:32:44.936Z,2.49
2018-11-28T02:33:19.667Z,2.46
2018-11-28T02:33:54.298Z,2.48
2018-11-28T02:34:29.078Z,2.48
2018-11-28T02:35:04.069Z,2.48
2018-11-28T02:35:38.708Z,2.44
2018-11-28T02:36:13.553Z,2.43
2018-11-28T02:36:48.186Z,2.41
2018-11-28T02:37:22.785Z,2.39
2018-11-28T02:37:57.840Z,2.32
2018-11-28T02:38:32.618Z,2.42
2018-11-28T02:39:10.309Z,2.47
2018-11-28T02:39:44.931Z,2.44
2018-11-28T02:40:20.156Z,2.40
2018-11-28T02:40:54.789Z,2.36
2018-11-28T02:41:29.384Z,2.38
2018-11-28T02:42:04.133Z,2.38
2018-11-28T02:42:39.114Z,2.37
2018-11-28T02:43:13.889Z,2.40
2018-11-28T02:43:48.435Z,2.40
2018-11-28T02:44:23.058Z,2.44
2018-11-28T02:44:57.805Z,2.36
2018-11-28T02:45:32.464Z,2.33
2018-11-28T02:46:18.414Z,2.33
2018-11-28T02:46:53.244Z,2.30
2018-11-28T02:47:27.837Z,2.27
2018-11-28T02:48:02.617Z,2.26
2018-11-28T02:48:37.334Z,2.29
2018-11-28T02:49:11.935Z,2.25
2018-11-28T02:49:46.658Z,2.25
2018-11-28T02:50:21.343Z,2.24
2018-11-28T02:50:55.981Z,2.22
2018-11-28T02:51:30.718Z,2.20
2018-11-28T02:52:05.994Z,2.19
2018-11-28T02:52:41.341Z,2.14
2018-11-28T02:53:16.024Z,2.15
2018-11-28T02:53:50.642Z,2.15
2018-11-28T02:54:25.267Z,2.17
2018-11-28T02:54:59.894Z,2.19
2018-11-28T02:55:34.712Z,2.20
2018-11-28T02:56:09.323Z,2.17
2018-11-28T02:56:43.989Z,2.14
2018-11-28T02:57:18.596Z,2.17
2018-11-28T02:57:53.210Z,2.24
2018-11-28T02:58:27.815Z,2.21
2018-11-28T02:59:02.933Z,2.17
2018-11-28T02:59:37.570Z,2.15
2018-11-28T03:00:15.664Z,2.11
2018-11-28T03:00:50.952Z,2.09
2018-11-28T03:01:25.578Z,2.08
2018-11-28T03:02:00.604Z,2.03
2018-11-28T03:02:35.470Z,2.05
2018-11-28T03:03:10.265Z,2.01
2018-11-28T03:03:44.882Z,1.99
2018-11-28T03:04:19.481Z,2.01
2018-11-28T03:04:54.124Z,1.97
2018-11-28T03:05:28.890Z,1.96
2018-11-28T03:06:03.929Z,1.98
2018-11-28T03:06:38.773Z,1.97
2018-11-28T03:07:13.389Z,1.93
2018-11-28T03:07:48.055Z,1.94
2018-11-28T03:08:22.678Z,1.94
2018-11-28T03:08:57.300Z,1.93
2018-11-28T03:09:31.941Z,1.88
2018-11-28T03:10:10.336Z,1.85
2018-11-28T03:10:47.196Z,1.82
2018-11-28T03:11:21.790Z,1.85
2018-11-28T03:11:56.411Z,1.82
2018-11-28T03:12:31.306Z,1.85
2018-11-28T03:13:06.597Z,1.85
2018-11-28T03:13:41.257Z,1.83
2018-11-28T03:14:15.892Z,1.84
2018-11-28T03:14:50.726Z,1.85
2018-11-28T03:15:32.530Z,1.83
2018-11-28T03:16:10.661Z,1.81
2018-11-28T03:16:45.353Z,1.79
2018-11-28T03:17:26.164Z,1.80
2018-11-28T03:18:01.397Z,1.80
2018-11-28T03:18:36.084Z,1.81
2018-11-28T03:19:10.764Z,1.85
2018-11-28T03:19:45.395Z,1.87
2018-11-28T03:20:20.085Z,1.86
2018-11-28T03:20:54.826Z,1.84
2018-11-28T03:21:29.430Z,1.89
2018-11-28T03:22:04.061Z,1.92
2018-11-28T03:22:38.873Z,1.88
2018-11-28T03:23:13.584Z,1.88
2018-11-28T03:23:48.373Z,1.88
2018-11-28T03:24:23.020Z,1.89
2018-11-28T03:24:57.642Z,1.91
2018-11-28T03:25:32.345Z,1.89
2018-11-28T03:26:07.073Z,1.89
2018-11-28T03:26:41.720Z,1.95
2018-11-28T03:27:16.389Z,1.94
2018-11-28T03:27:51.121Z,1.92
2018-11-28T03:28:26.114Z,1.91
2018-11-28T03:29:00.846Z,1.87
2018-11-28T03:29:35.542Z,1.87
2018-11-28T03:30:12.850Z,1.85
2018-11-28T03:30:47.515Z,1.81
2018-11-28T03:31:22.159Z,1.81
2018-11-28T03:31:56.783Z,1.82
2018-11-28T03:32:31.477Z,1.85
2018-11-28T03:33:06.267Z,1.81
2018-11-28T03:33:41.027Z,1.75
2018-11-28T03:34:15.793Z,1.91
2018-11-28T03:34:50.417Z,1.88
2018-11-28T03:35:25.544Z,1.90
2018-11-28T03:36:00.174Z,1.87
2018-11-28T03:36:34.815Z,1.84
2018-11-28T03:37:11.712Z,1.84
2018-11-28T03:37:46.326Z,1.82
2018-11-28T03:38:21.025Z,1.83
2018-11-28T03:38:55.648Z,1.86
2018-11-28T03:39:30.258Z,1.85
2018-11-28T03:40:05.334Z,1.82
2018-11-28T03:40:40.047Z,1.81
2018-11-28T03:41:14.659Z,1.81
2018-11-28T03:41:49.388Z,1.82
2018-11-28T03:42:24.392Z,1.79
2018-11-28T03:42:59.075Z,1.85
2018-11-28T03:43:36.664Z,1.79
2018-11-28T03:44:11.351Z,1.78
2018-11-28T03:44:45.959Z,1.75
2018-11-28T03:45:20.835Z,1.75
2018-11-28T03:45:55.498Z,1.70
2018-11-28T03:46:30.119Z,1.68
2018-11-28T03:47:05.218Z,1.67
2018-11-28T03:47:39.860Z,1.64
2018-11-28T03:48:14.623Z,1.61
2018-11-28T03:48:49.266Z,1.63
2018-11-28T03:49:23.869Z,1.61
2018-11-28T03:49:58.553Z,1.57
2018-11-28T03:50:33.255Z,1.61
2018-11-28T03:51:07.848Z,1.58
2018-11-28T03:51:42.477Z,1.58
2018-11-28T03:52:17.142Z,1.57
2018-11-28T03:52:51.770Z,1.60
2018-11-28T03:53:26.485Z,1.56
2018-11-28T03:54:01.097Z,1.51
2018-11-28T03:54:35.759Z,1.59
2018-11-28T03:55:11.836Z,1.55
2018-11-28T03:55:47.025Z,1.51
2018-11-28T03:56:21.795Z,1.47
2018-11-28T03:56:56.480Z,1.46
2018-11-28T03:57:31.206Z,1.48
2018-11-28T03:58:05.939Z,1.43
2018-11-28T03:58:40.558Z,1.46
2018-11-28T03:59:15.231Z,1.47
2018-11-28T03:59:49.957Z,1.46
2018-11-28T04:00:24.693Z,1.42
2018-11-28T04:00:59.420Z,1.38
2018-11-28T04:01:34.027Z,1.34
2018-11-28T04:02:08.643Z,1.35
2018-11-28T04:02:43.345Z,1.36
2018-11-28T04:03:18.025Z,1.32
2018-11-28T04:03:52.657Z,1.34
2018-11-28T04:04:27.366Z,1.35
2018-11-28T04:05:02.035Z,1.38
2018-11-28T04:05:37.232Z,1.38
2018-11-28T04:06:11.890Z,1.39
2018-11-28T04:06:46.517Z,1.40
2018-11-28T04:07:21.313Z,1.40
2018-11-28T04:07:55.924Z,1.41
2018-11-28T04:08:30.553Z,1.41
2018-11-28T04:09:08.241Z,1.44
2018-11-28T04:09:42.925Z,1.43
2018-11-28T04:10:17.938Z,1.40
2018-11-28T04:10:52.642Z,1.39
2018-11-28T04:11:27.382Z,1.38
2018-11-28T04:12:02.015Z,1.40
2018-11-28T04:12:36.634Z,1.44
2018-11-28T04:13:11.250Z,1.40
2018-11-28T04:13:46.006Z,1.38
2018-11-28T04:14:21.428Z,1.42
2018-11-28T04:14:56.152Z,1.41
2018-11-28T04:15:31.259Z,1.40
2018-11-28T04:16:06.856Z,1.46
2018-11-28T04:16:41.482Z,1.47
2018-11-28T04:17:16.072Z,1.50
2018-11-28T04:17:50.797Z,1.49
2018-11-28T04:18:25.511Z,1.47
2018-11-28T04:19:00.204Z,1.46
2018-11-28T04:19:34.805Z,1.49
2018-11-28T04:20:11.603Z,1.48
2018-11-28T04:20:46.289Z,1.49
2018-11-28T04:21:21.076Z,1.50
2018-11-28T04:21:55.696Z,1.46
2018-11-28T04:22:30.358Z,1.48
2018-11-28T04:23:05.292Z,1.50
2018-11-28T04:23:39.916Z,1.52
2018-11-28T04:24:14.601Z,1.50
2018-11-28T04:24:49.278Z,1.54
2018-11-28T04:25:24.467Z,1.53
2018-11-28T04:25:59.284Z,1.50
2018-11-28T04:26:33.926Z,1.51
2018-11-28T04:27:08.555Z,1.52
2018-11-28T04:27:43.736Z,1.50
2018-11-28T04:29:21.867Z,1.51
2018-11-28T04:29:56.535Z,1.50
2018-11-28T04:30:31.268Z,1.58
2018-11-28T04:31:06.390Z,1.61
2018-11-28T04:31:41.168Z,1.60
2018-11-28T04:32:15.803Z,1.80
2018-11-28T04:32:51.340Z,1.76
2018-11-28T04:33:26.218Z,1.73
2018-11-28T04:34:00.937Z,1.79
2018-11-28T04:34:35.603Z,1.98
2018-11-28T04:35:12.296Z,2.03
2018-11-28T04:35:46.923Z,2.04
2018-11-28T04:36:21.667Z,2.04
2018-11-28T04:36:56.313Z,2.01
2018-11-28T04:37:30.965Z,1.97
2018-11-28T04:38:05.977Z,1.97
2018-11-28T04:38:40.610Z,1.99
2018-11-28T04:39:15.289Z,1.95
2018-11-28T04:39:49.967Z,2.02
2018-11-28T04:40:24.774Z,2.03
2018-11-28T04:40:59.414Z,2.06
2018-11-28T04:41:34.102Z,2.11
2018-11-28T04:42:08.693Z,2.11
2018-11-28T04:42:43.661Z,2.15
2018-11-28T04:43:18.320Z,2.14
2018-11-28T04:43:53.065Z,2.08
2018-11-28T04:44:27.837Z,2.21
2018-11-28T04:45:02.821Z,2.17
2018-11-28T04:45:37.470Z,2.19
2018-11-28T04:46:12.190Z,2.14
2018-11-28T04:46:46.904Z,2.18
2018-11-28T04:47:21.631Z,2.13
2018-11-28T04:47:56.581Z,2.19
2018-11-28T04:48:31.266Z,2.21
2018-11-28T04:49:06.106Z,2.21
2018-11-28T04:49:40.746Z,2.19
2018-11-28T04:50:15.811Z,2.17
2018-11-28T04:50:50.475Z,2.18
2018-11-28T04:51:25.662Z,2.17
2018-11-28T04:52:00.385Z,2.18
2018-11-28T04:52:35.019Z,2.27
2018-11-28T04:53:09.641Z,2.29
2018-11-28T04:53:44.296Z,2.29
2018-11-28T04:54:18.984Z,2.25
2018-11-28T04:54:53.690Z,2.24
2018-11-28T04:55:28.322Z,2.22
2018-11-28T04:56:02.947Z,2.18
2018-11-28T04:56:37.550Z,2.15
2018-11-28T04:57:12.228Z,2.21
2018-11-28T04:57:47.486Z,2.18
2018-11-28T04:58:22.203Z,2.14
2018-11-28T04:58:56.907Z,2.03
2018-11-28T04:59:31.536Z,2.12
2018-11-28T05:00:10.911Z,2.14
2018-11-28T05:00:45.587Z,2.14
2018-11-28T05:01:20.305Z,2.19
2018-11-28T05:01:55.022Z,2.29
2018-11-28T05:02:29.645Z,2.33
2018-11-28T05:03:04.296Z,2.33
2018-11-28T05:03:38.925Z,2.31
2018-11-28T05:04:13.670Z,2.26
2018-11-28T05:04:48.428Z,2.35
2018-11-28T05:05:23.870Z,2.33
2018-11-28T05:05:58.542Z,2.31
2018-11-28T05:07:41.267Z,2.27
2018-11-28T05:08:15.885Z,2.27
2018-11-28T05:08:50.606Z,2.30
2018-11-28T05:09:25.291Z,2.41
2018-11-28T05:10:00.116Z,2.52
2018-11-28T05:10:34.700Z,2.43
2018-11-28T05:11:09.311Z,2.40
2018-11-28T05:11:44.147Z,2.35
2018-11-28T05:12:18.842Z,2.28
2018-11-28T05:12:54.089Z,2.30
2018-11-28T05:13:28.877Z,2.34
2018-11-28T05:14:03.615Z,2.30
2018-11-28T05:14:38.313Z,2.27
2018-11-28T05:15:16.101Z,2.26
2018-11-28T05:15:50.840Z,2.31
2018-11-28T05:16:25.573Z,2.27
2018-11-28T05:17:00.527Z,2.27
2018-11-28T05:17:35.219Z,2.41
2018-11-28T05:18:09.817Z,2.37
2018-11-28T05:18:44.509Z,2.37
2018-11-28T05:19:19.125Z,2.37
2018-11-28T05:19:53.896Z,2.44
2018-11-28T05:20:31.030Z,2.45
2018-11-28T05:21:05.948Z,2.37
2018-11-28T05:21:40.658Z,2.36
2018-11-28T05:22:15.691Z,2.51
2018-11-28T05:22:50.366Z,2.64
2018-11-28T05:23:25.007Z,2.53
2018-11-28T05:23:59.710Z,2.56
2018-11-28T05:24:34.464Z,2.47
2018-11-28T05:25:16.318Z,2.42
2018-11-28T05:25:51.082Z,2.37
2018-11-28T05:26:25.862Z,2.35
2018-11-28T05:27:00.645Z,2.33
2018-11-28T05:27:35.269Z,2.35
2018-11-28T05:28:10.015Z,2.39
2018-11-28T05:28:44.884Z,2.40
2018-11-28T05:29:19.486Z,2.33
2018-11-28T05:29:54.172Z,2.25
2018-11-28T05:30:30.245Z,2.20
2018-11-28T05:31:05.277Z,2.15
2018-11-28T05:31:39.987Z,2.19
2018-11-28T05:32:15.060Z,2.20
2018-11-28T05:32:49.726Z,2.26
2018-11-28T05:33:24.346Z,2.32
2018-11-28T05:33:58.990Z,2.21
2018-11-28T05:34:33.810Z,2.36
2018-11-28T05:35:13.667Z,2.37
2018-11-28T05:35:48.336Z,2.36
2018-11-28T05:36:22.929Z,2.25
2018-11-28T05:36:57.683Z,2.21
2018-11-28T05:37:32.499Z,2.17
2018-11-28T05:38:10.362Z,2.11
2018-11-28T05:38:45.064Z,2.10
2018-11-28T05:39:19.814Z,2.11
2018-11-28T05:39:54.492Z,2.13
2018-11-28T05:40:30.012Z,2.15
2018-11-28T05:41:05.219Z,2.14
2018-11-28T05:41:40.864Z,2.14
2018-11-28T05:42:14.459Z,2.14
2018-11-28T05:42:49.286Z,2.09
2018-11-28T05:43:23.969Z,2.15
2018-11-28T05:43:58.658Z,2.13
2018-11-28T05:44:33.348Z,2.13
2018-11-28T05:45:10.709Z,2.10
2018-11-28T05:45:45.377Z,2.09
2018-11-28T05:46:19.996Z,2.19
2018-11-28T05:46:55.041Z,2.11
2018-11-28T05:47:30.172Z,2.08
2018-11-28T05:48:05.006Z,2.13
2018-11-28T05:48:39.609Z,2.29
2018-11-28T05:49:15.179Z,2.19
2018-11-28T05:49:48.892Z,2.21
2018-11-28T05:50:24.038Z,2.18
2018-11-28T05:50:58.762Z,2.23
2018-11-28T05:51:33.583Z,2.20
2018-11-28T05:52:08.274Z,2.16
2018-11-28T05:52:42.897Z,2.17
2018-11-28T05:53:17.531Z,2.17
2018-11-28T05:53:52.143Z,2.17
2018-11-28T05:54:26.760Z,2.17
2018-11-28T05:55:01.427Z,2.18
2018-11-28T05:55:36.088Z,2.16
2018-11-28T05:56:10.782Z,1.95
2018-11-28T05:56:45.396Z,2.22
2018-11-28T05:57:20.120Z,2.38
2018-11-28T05:57:54.785Z,2.42
2018-11-28T05:58:30.059Z,2.37
2018-11-28T05:59:04.736Z,2.34
2018-11-28T05:59:39.365Z,2.30
2018-11-28T06:00:46.027Z,2.30
2018-11-28T06:01:20.809Z,2.36
2018-11-28T06:01:55.476Z,2.33
2018-11-28T06:02:30.302Z,2.29
2018-11-28T06:03:05.861Z,2.29
2018-11-28T06:03:40.517Z,2.27
2018-11-28T06:04:15.148Z,2.27
2018-11-28T06:04:49.744Z,2.29
2018-11-28T06:05:24.536Z,2.35
2018-11-28T06:05:59.245Z,2.29
2018-11-28T06:06:33.925Z,2.24
2018-11-28T06:07:08.656Z,2.27
2018-11-28T06:07:43.359Z,2.40
2018-11-28T06:08:18.072Z,2.52
2018-11-28T06:08:52.720Z,2.61
2018-11-28T06:09:27.423Z,2.53
2018-11-28T06:10:02.169Z,2.46
2018-11-28T06:10:36.991Z,2.44
2018-11-28T06:11:11.620Z,2.44
2018-11-28T06:11:46.222Z,2.43
2018-11-28T06:12:20.934Z,2.44
2018-11-28T06:12:55.609Z,2.43
2018-11-28T06:13:30.751Z,2.43
2018-11-28T06:14:06.094Z,2.45
2018-11-28T06:14:40.859Z,2.57
2018-11-28T06:15:15.525Z,2.56
2018-11-28T06:15:50.184Z,2.63
2018-11-28T06:16:24.794Z,2.65
2018-11-28T06:16:59.473Z,2.59
2018-11-28T06:17:34.260Z,2.75
2018-11-28T06:18:09.950Z,2.65
2018-11-28T06:18:44.648Z,2.69
2018-11-28T06:19:19.348Z,2.68
2018-11-28T06:19:53.977Z,2.79
2018-11-28T06:20:28.695Z,2.88
2018-11-28T06:21:03.510Z,2.89
2018-11-28T06:21:38.204Z,2.84
2018-11-28T06:22:12.954Z,2.81
2018-11-28T06:22:47.653Z,2.67
2018-11-28T06:23:22.315Z,2.62
2018-11-28T06:23:56.969Z,2.61
2018-11-28T06:24:32.182Z,2.70
2018-11-28T06:25:15.586Z,2.71
2018-11-28T06:25:43.584Z,2.62
2018-11-28T06:26:18.224Z,2.62
2018-11-28T06:26:52.881Z,2.62
2018-11-28T06:27:27.516Z,2.67
2018-11-28T06:28:02.199Z,2.69
2018-11-28T06:28:36.888Z,2.63
2018-11-28T06:29:11.666Z,2.64
2018-11-28T06:29:46.280Z,2.64
2018-11-28T06:30:21.361Z,2.57
2018-11-28T06:30:56.023Z,2.57
2018-11-28T06:31:30.980Z,2.55
2018-11-28T06:32:06.014Z,2.58
2018-11-28T06:32:41.043Z,2.66
2018-11-28T06:33:15.646Z,2.63
2018-11-28T06:33:50.330Z,2.60
2018-11-28T06:34:25.045Z,2.56
2018-11-28T06:34:59.697Z,2.54
2018-11-28T06:35:34.427Z,2.52
2018-11-28T06:36:09.061Z,2.52
2018-11-28T06:36:43.701Z,2.49
2018-11-28T06:37:18.322Z,2.50
2018-11-28T06:37:52.975Z,2.51
2018-11-28T06:38:27.687Z,2.70
2018-11-28T06:39:02.432Z,2.70
2018-11-28T06:39:37.040Z,2.63
2018-11-28T06:40:16.354Z,2.59
2018-11-28T06:40:51.017Z,2.58
2018-11-28T06:41:25.738Z,2.59
2018-11-28T06:42:00.551Z,2.58
2018-11-28T06:42:35.329Z,2.59
2018-11-28T06:43:10.043Z,2.62
2018-11-28T06:43:44.677Z,2.62
2018-11-28T06:44:19.336Z,2.70
2018-11-28T06:44:53.951Z,2.71
2018-11-28T06:45:28.653Z,2.63
2018-11-28T06:46:03.455Z,2.67
2018-11-28T06:46:38.057Z,2.65
2018-11-28T06:47:12.841Z,2.65
2018-11-28T06:47:47.519Z,2.76
2018-11-28T06:48:22.151Z,2.69
2018-11-28T06:48:56.905Z,2.70
2018-11-28T06:49:31.591Z,2.85
2018-11-28T06:50:09.306Z,2.86
2018-11-28T06:50:43.947Z,2.85
2018-11-28T06:51:18.618Z,2.78
2018-11-28T06:51:53.325Z,2.76
2018-11-28T06:52:28.104Z,2.70
2018-11-28T06:53:02.802Z,2.70
2018-11-28T06:53:37.536Z,2.64
2018-11-28T06:54:12.195Z,2.66
2018-11-28T06:54:46.899Z,2.67
2018-11-28T06:55:22.394Z,2.67
2018-11-28T06:55:57.128Z,2.65
2018-11-28T06:56:31.824Z,2.75
2018-11-28T06:57:06.707Z,2.74
2018-11-28T06:57:41.348Z,2.71
2018-11-28T06:58:15.976Z,2.67
2018-11-28T06:58:50.616Z,2.61
2018-11-28T06:59:25.374Z,2.76
2018-11-28T07:00:00.111Z,2.69
2018-11-28T07:00:34.882Z,2.65
2018-11-28T07:01:09.622Z,2.86
2018-11-28T07:01:44.305Z,2.84
2018-11-28T07:02:18.948Z,2.75
2018-11-28T07:02:54.341Z,2.68
2018-11-28T07:03:28.978Z,2.67
2018-11-28T07:04:03.676Z,2.73
2018-11-28T07:04:38.748Z,2.69
2018-11-28T07:05:13.892Z,2.69
2018-11-28T07:05:48.531Z,2.67
2018-11-28T07:06:23.196Z,2.64
2018-11-28T07:06:57.885Z,2.68
2018-11-28T07:07:32.814Z,2.60
2018-11-28T07:08:07.858Z,2.61
2018-11-28T07:08:42.449Z,2.58
2018-11-28T07:09:17.208Z,2.59
2018-11-28T07:09:51.991Z,2.58
2018-11-28T07:10:26.616Z,2.69
2018-11-28T07:11:01.457Z,2.67
2018-11-28T07:11:36.166Z,2.69
2018-11-28T07:12:10.798Z,2.70
2018-11-28T07:12:45.892Z,2.71
2018-11-28T07:13:20.821Z,2.66
2018-11-28T07:13:55.495Z,2.69
2018-11-28T07:14:30.694Z,2.70
2018-11-28T07:15:07.150Z,2.61
2018-11-28T07:15:41.827Z,2.56
2018-11-28T07:16:16.477Z,2.61
2018-11-28T07:16:51.138Z,2.59
2018-11-28T07:17:25.762Z,2.63
2018-11-28T07:18:11.640Z,2.74
2018-11-28T07:18:57.582Z,2.77
2018-11-28T07:19:32.390Z,2.92
2018-11-28T07:20:09.186Z,2.92
2018-11-28T07:20:43.868Z,2.83
2018-11-28T07:21:18.524Z,2.75
2018-11-28T07:21:53.146Z,2.73
2018-11-28T07:22:27.877Z,2.70
2018-11-28T07:23:02.647Z,2.62
2018-11-28T07:23:37.376Z,2.68
2018-11-28T07:24:12.005Z,2.71
2018-11-28T07:24:46.666Z,2.61
2018-11-28T07:25:21.464Z,2.63
2018-11-28T07:25:56.193Z,2.62
2018-11-28T07:26:30.950Z,2.55
2018-11-28T07:27:06.001Z,2.55
2018-11-28T07:27:45.051Z,2.71
2018-11-28T07:28:15.313Z,2.79
2018-11-28T07:28:49.979Z,2.76
2018-11-28T07:29:24.703Z,2.74
2018-11-28T07:29:59.369Z,2.65
2018-11-28T07:30:37.658Z,2.65
2018-11-28T07:31:08.905Z,2.88
2018-11-28T07:31:43.525Z,2.85
2018-11-28T07:32:18.277Z,2.81
2018-11-28T07:32:54.842Z,2.78
2018-11-28T07:33:29.614Z,2.73
2018-11-28T07:34:04.394Z,2.73
2018-11-28T07:34:39.052Z,2.73
2018-11-28T07:35:14.514Z,2.80
2018-11-28T07:35:49.227Z,2.85
2018-11-28T07:36:23.898Z,2.97
2018-11-28T07:36:58.625Z,2.91
2018-11-28T07:37:33.346Z,2.82
2018-11-28T07:38:08.022Z,2.79
2018-11-28T07:38:42.705Z,2.77
2018-11-28T07:39:17.314Z,2.80
2018-11-28T07:39:52.043Z,2.89
2018-11-28T07:40:27.498Z,2.84
2018-11-28T07:41:02.403Z,2.79
2018-11-28T07:41:37.074Z,2.79
2018-11-28T07:42:11.805Z,2.77
2018-11-28T07:42:56.848Z,2.83
2018-11-28T07:43:31.710Z,2.94
2018-11-28T07:44:06.460Z,2.86
2018-11-28T07:44:41.093Z,2.84
2018-11-28T07:45:15.695Z,2.91
2018-11-28T07:45:52.097Z,2.87
2018-11-28T07:46:26.765Z,2.96
2018-11-28T07:47:01.908Z,3.03
2018-11-28T07:47:36.597Z,2.99
2018-11-28T07:48:11.209Z,2.89